X  Luk Metar data     EDDK Cologne Bonn Airport
Temperatur
23°C Temperatur
13°C Duggpunkt
53% Fugtighed



Vind
3 M/S
6 MPT
10 KM/T
5 KNOB



280°
V
Nuværende forhold

Delvis skyet Delvis skyet
Tryk 1019.98 (hPa) - 30.12 (inHg)
Sigt 6 (mil) - 9.7 (km)
Lufthavn
Lufthavnskode EDDK

Lokation: Cologne Bonn Airport
Afstand: 56 (km)

Metar:
EDDK 231150Z AUTO 28005KT 200V320 9999 FEW041 23/13 Q1020 NOSIG

Tid: 2024-06-23 13:50 CEST